Portada
METAR-TAF:

METAR-TAF

Aeroports :

Saint-Pierre, Saint-Pierre i Miquelon

latitud: 46-46N, longitud: 056-10W, altitud: 3 m

Observació

L'informe es va fer fa 25 minuts, a les 20:00 UTC
Vent 14 kt del Sud-Oest
Temperatura 13°C
Humitat 100%
Pressió 1014 hPa
Visibilitat: 1500 m
Cel cobert a una alçada de 200 ft
pluja, boirina

METAR: LFVP 152000Z 22014KT 1500 -RA BR OVC002 13/13 Q1014 NOSIG

Hora: 18:25 (20:25 UTC)

Pronòstic

L'informe es va fer fa 3 hores i 25 minuts, a les 17:00 UTC
Pronòstic vàlid del 15 a les 18 UTC al 16 a les 03 UTC
Vent 10 kt del Oest/Sud-Oest
Visibilitat: 8000 m
Escasses núvols a una alçada de 300 ft
Cel cobert a una alçada de 1000 ft
plugim
Evolucionant progressivament
l' 15 a les 18 UTC al 15 a les 20 UTC
Visibilitat: 4000 m
Boira superficial

TAF: LFVP 151700Z 1518/1603 24010KT 8000 DZ FEW003 OVC010 BECMG 1518/1520 4000 MIFG

Observacions i pronòstics meteorològics de més de 4000 aeroports (METAR i TAF).

Les estacions disponibles són els punts grocs i vermells al mapa.

Posi el ratolí al punt desitjat per veure el nom de l'estació.

Feu clic per veure les observacions i els pronòstics meteorològics.

Per canviar el mapa: feu clic els botons verds amb una creu de color negre per apropar; al botó verd amb un guió per allunyar la imatge; o en les fletxes verdes per a mapes adjacents.


METAR-TAF: